Edinburg, Mississippi
Current Conditions -  °F | °C
As of 3:54 AM on Thursday 27 Nov 2014 (Local Time) from KJAN Reporting Station
Clear Clear  
Wind Chill: 42°   Ceiling: Unl
Heat Index: 45°   Visibility: 10mi
Dew Point: 30°   Wind: 6mph
Humidity: 56%   Direction: 310°NW
Pressure: 30.33"   Gusts: NA
Location:  32.8169°N, 89.5441°W
Report Text: KJAN 270954Z AUTO 31005KT 10SM CLR 07/M01 A3033 RMK AO2 SLP268 T00721011
Loading
Personal Weather Stations






























Interactive Weather Map New forecast layout! Learn more

10-Day Weather Forecast

Advertisements
Track Severe Weather on mobile